Weather observations for the past three days for
Hardin County Airport
Imperial (Metric)
Date Time (edt) Wind (mph) Vis. (mi.) Weather Sky Cond. Temperature (ºF) Relative Humidity Wind Chill (°F) Heat Index (°F) Pressure Precipitation (in)
Air Dwpt 6 hour altimeter (in) sea level (mb) 1 hr 3 hr 6 hr
Max. Min.
07 14:55 W 20 G 26 10.00 Partly Cloudy SCT060 57.2 33.8 41% 29.92 0.0
07 14:35 NW 18 G 30 10.00 A Few Clouds FEW055 55.4 32 41% 29.92 0.0
07 14:15 NW 18 G 24 10.00 A Few Clouds FEW055 55.4 33.8 44% 29.92 0.0
07 13:55 NW 18 G 28 10.00 Fair CLR 55.4 33.8 44% 29.93 0.0
07 13:15 NW 17 G 25 10.00 Fair CLR 53.6 33.8 47% 29.94 0.0
07 12:55 W 20 10.00 Fair CLR 51.8 33.8 50% 29.94 0.0
07 12:35 W 15 G 23 10.00 Fair CLR 53.6 35.6 51% 29.94 0.0
07 11:55 W 13 G 25 10.00 A Few Clouds FEW040 51.8 35.6 54% 29.94 0.0
07 11:35 W 12 G 20 10.00 A Few Clouds FEW039 51.8 35.6 54% 29.94 0.0
07 11:15 W 15 10.00 A Few Clouds FEW037 51.8 35.6 54% 29.94 0.0
07 10:55 W 9 G 16 10.00 A Few Clouds FEW035 50 35.6 58% 47 29.94 0.0
07 10:35 NW 12 G 20 10.00 Fair CLR 50 35.6 58% 46 29.94 0.0
07 10:15 W 10 10.00 Fair CLR 48.2 35.6 62% 44 29.94 0.0
07 09:55 W 10 10.00 Fair CLR 48.2 35.6 62% 44 29.94 0.0
07 09:35 W 10 10.00 Fair CLR 46.4 35.6 66% 42 29.94 0.0
07 09:15 W 8 10.00 Fair CLR 46.4 35.6 66% 43 29.94 0.0
07 08:55 W 10 10.00 Fair CLR 44.6 35.6 71% 40 29.94 0.0
07 08:35 W 10 10.00 Fair CLR 42.8 35.6 76% 38 29.94 0.0
07 08:15 W 9 10.00 Fair CLR 42.8 37.4 81% 38 29.95 0.0
07 07:55 W 9 10.00 Fair CLR 42.8 37.4 81% 38 29.94 0.0
07 07:35 W 12 10.00 Fair CLR 42.8 35.6 76% 37 29.94 0.0
07 06:55 W 9 10.00 Fair CLR 41 35.6 81% 36 29.93 0.0
07 06:35 W 8 10.00 Fair CLR 39.2 35.6 87% 34 29.92 0.0
07 06:15 W 9 10.00 A Few Clouds FEW050 FEW055 39.2 35.6 87% 34 29.92 0.0
07 05:35 W 8 10.00 Mostly Cloudy FEW038 BKN048 BKN055 41 37.4 87% 36 29.92 0.0
07 05:15 W 8 10.00 Mostly Cloudy FEW040 BKN049 BKN055 41 37.4 87% 36 29.91 0.0
07 04:55 W 8 10.00 Mostly Cloudy FEW042 BKN049 BKN060 41 37.4 87% 36 29.91 0.0
07 04:35 W 8 10.00 Mostly Cloudy SCT044 BKN050 BKN060 41 37.4 87% 36 29.91 0.0
07 04:15 W 8 10.00 Mostly Cloudy FEW039 SCT049 BKN060 42.8 37.4 81% 39 29.91 0.0
07 03:55 W 9 10.00 Overcast FEW039 BKN050 OVC060 42.8 37.4 81% 38 29.92 0.0
07 03:35 W 9 10.00 Mostly Cloudy BKN055 BKN065 42.8 39.2 87% 38 29.91 0.0
07 03:15 W 8 10.00 Overcast BKN055 OVC065 41 39.2 93% 36 29.91 0.0
07 02:55 SW 7 10.00 Overcast BKN055 OVC065 41 39.2 93% 37 29.92 0.0
07 02:35 SW 7 10.00 Mostly Cloudy BKN055 BKN065 42.8 39.2 87% 39 29.92 0.0
07 02:15 SW 7 10.00 Overcast BKN055 OVC070 42.8 39.2 87% 39 29.92 0.0
07 01:55 SW 7 10.00 Overcast BKN060 OVC070 44.6 39.2 81% 41 29.92 0.0
07 01:35 SW 8 10.00 Mostly Cloudy BKN060 BKN070 44.6 37.4 76% 41 29.92 0.0
07 01:15 SW 7 10.00 Mostly Cloudy SCT060 BKN070 44.6 37.4 76% 41 29.93 0.0
07 00:35 S 5 10.00 Partly Cloudy SCT050 SCT065 44.6 37.4 76% 43 29.93 0.0
07 00:15 S 6 10.00 Partly Cloudy SCT050 44.6 37.4 76% 42 29.93 0.0
06 23:55 S 6 10.00 A Few Clouds FEW070 44.6 37.4 76% 42 29.93 0.0
06 23:35 S 7 10.00 Partly Cloudy FEW060 SCT070 SCT120 46.4 39.2 76% 43 29.93 0.0
06 23:15 S 6 10.00 Partly Cloudy FEW070 SCT120 46.4 39.2 76% 44 29.93 0.0
06 22:55 S 5 10.00 Partly Cloudy SCT120 44.6 39.2 81% 43 29.94 0.0
06 22:35 SW 5 10.00 Fair CLR 42.8 39.2 87% 41 29.94 0.0
06 21:55 Calm 10.00 A Few Clouds FEW048 44.6 39.2 81% 29.93 0.0
06 21:35 S 3 10.00 Fair CLR 44.6 39.2 81% 29.93 0.0
06 21:15 SW 3 10.00 Fair CLR 46.4 39.2 76% 29.93 0.0
06 20:55 Calm 10.00 Fair CLR 48.2 39.2 71% 29.92 0.0
06 20:35 NW 3 10.00 Mostly Cloudy BKN120 50 39.2 67% 29.92 0.0
06 20:15 NW 5 10.00 Overcast SCT100 OVC120 50 39.2 67% 49 29.91 0.0
06 19:55 NW 7 10.00 Overcast OVC090 51.8 37.4 58% 29.91 0.0
06 19:35 NW 6 10.00 Overcast OVC090 51.8 39.2 62% 29.91 0.0
06 19:15 W 7 10.00 Overcast FEW050 OVC090 51.8 37.4 58% 29.91 0.0
06 18:55 W 6 10.00 Overcast BKN050 OVC090 51.8 37.4 58% 29.92 0.0
06 18:35 W 7 10.00 Overcast BKN050 OVC085 51.8 37.4 58% 29.92 0.0
06 18:15 W 5 G 12 10.00 Overcast FEW050 OVC085 51.8 35.6 54% 29.91 0.0
06 17:55 W 7 10.00 Overcast OVC085 51.8 35.6 54% 29.92 0.0
06 17:35 W 8 10.00 Mostly Cloudy BKN085 51.8 35.6 54% 29.91 0.0
06 17:15 W 7 10.00 Overcast OVC085 51.8 35.6 54% 29.9 0.0
06 16:55 W 10 10.00 Overcast OVC085 53.6 35.6 51% 29.9 0.0
06 16:35 NW 9 10.00 Overcast OVC090 53.6 33.8 47% 29.9 0.0
06 16:15 NW 12 10.00 Mostly Cloudy BKN090 53.6 33.8 47% 29.9 0.0
06 15:55 NW 14 10.00 Mostly Cloudy BKN090 53.6 33.8 47% 29.9 0.0
06 15:35 NW 8 10.00 Overcast OVC090 53.6 33.8 47% 29.9 0.0
06 15:15 NW 12 10.00 Overcast OVC095 53.6 37.4 54% 29.9 0.0
06 14:55 NW 10 10.00 Overcast OVC100 53.6 35.6 51% 29.9 0.0
06 14:35 NW 7 10.00 Overcast OVC100 53.6 35.6 51% 29.9 0.0
06 14:15 NW 15 10.00 Overcast FEW050 OVC100 53.6 35.6 51% 29.9 0.0
06 13:55 NW 7 G 17 10.00 Partly Cloudy FEW050 SCT100 55.4 35.6 47% 29.9 0.0
06 13:35 NW 14 10.00 A Few Clouds FEW110 55.4 37.4 51% 29.89 0.0
06 13:15 NW 12 G 18 10.00 Fair CLR 55.4 39.2 55% 29.9 0.0
06 12:55 N 10 G 17 10.00 Fair CLR 55.4 39.2 55% 29.9 0.0
06 12:35 NW 9 10.00 Fair CLR 53.6 39.2 58% 29.9 0.0
06 12:15 NW 10 G 16 10.00 Fair CLR 55.4 41 59% 29.9 0.0
06 11:55 NW 13 10.00 Fair CLR 53.6 41 63% 29.9 0.0
06 11:35 NW 14 10.00 Fair CLR 53.6 42.8 67% 29.89 0.0
06 11:15 NW 12 10.00 Fair CLR 51.8 42.8 72% 29.88 0.0
06 10:55 NW 9 10.00 Fair CLR 51.8 42.8 72% 29.88 0.0
06 10:35 NW 10 10.00 Fair CLR 51.8 42.8 72% 29.87 0.0
06 10:15 NW 9 10.00 Fair CLR 50 42.8 76% 47 29.87 0.0
06 09:55 NW 12 10.00 Mostly Cloudy BKN065 50 42.8 76% 46 29.85 0.0
06 09:35 NW 10 10.00 Overcast OVC065 48.2 42.8 82% 44 29.86 0.0
06 09:15 W 9 10.00 Overcast OVC065 46.4 42.8 87% 42 29.86 0.0
06 08:55 NW 9 10.00 Overcast OVC060 46.4 42.8 87% 42 29.85 0.0
06 08:35 NW 6 10.00 Overcast OVC060 44.6 42.8 93% 42 29.84 0.0
06 08:15 NW 8 10.00 Overcast OVC055 44.6 42.8 93% 41 29.84 0.0
06 07:35 NW 5 10.00 Overcast OVC050 44.6 42.8 93% 43 29.81 0.0
06 07:15 N 6 10.00 Overcast OVC050 42.8 42.8 100% 40 29.8 0.0
06 06:55 N 7 10.00 Overcast OVC049 42.8 42.8 100% 39 29.8 0.0
06 06:35 NW 6 10.00 Overcast OVC049 42.8 42.8 100% 40 29.8 0.0
06 06:15 N 5 10.00 Overcast OVC045 42.8 42.8 100% 41 29.78 0.0
06 05:55 N 9 10.00 Overcast OVC044 42.8 42.8 100% 38 29.79 0.0
06 05:35 N 8 10.00 Overcast OVC044 42.8 42.8 100% 39 29.78 0.0
06 05:15 NW 12 10.00 Overcast FEW031 BKN041 OVC065 42.8 42.8 100% 37 29.79 0.0
06 04:55 N 8 10.00 Overcast FEW017 SCT040 OVC065 42.8 42.8 100% 39 29.76 0.0 0.01
06 04:35 N 6 10.00 Overcast BKN040 OVC070 42.8 42.8 100% 40 29.78 0.0
06 04:15 N 6 10.00 Overcast OVC039 42.8 42.8 100% 40 29.77 0.0
06 03:55 N 8 10.00 Overcast OVC038 42.8 42.8 100% 39 29.77 0.0 0.01
06 03:15 N 8 8.00 Overcast OVC036 44.6 44.6 100% 41 29.77 0.0
06 02:55 NW 12 7.00 Overcast OVC035 44.6 44.6 100% 39 29.78 0.0 0.02
06 02:35 NW 9 10.00 Overcast OVC035 44.6 44.6 100% 40 29.78 0.0
06 02:15 NW 9 9.00 Overcast BKN033 BKN048 OVC060 44.6 44.6 100% 40 29.78 0.0
06 01:55 N 6 7.00 Overcast SCT032 BKN048 OVC075 44.6 44.6 100% 42 29.77 0.0 0.04
06 01:35 N 8 3.00 Fog/Mist FEW008 OVC030 44.6 44.6 100% 41 29.78 0.0
06 01:15 N 9 10.00 Overcast OVC030 44.6 44.6 100% 40 29.78 0.0
06 00:55 NW 8 9.00 Overcast BKN016 OVC029 44.6 44.6 100% 41 29.78 0.0 0.02
06 00:35 N 7 3.00 Fog/Mist FEW007 SCT013 OVC017 44.6 44.6 100% 41 29.78 0.0
06 00:15 NW 12 6.00 Fog/Mist SCT008 BKN014 OVC028 44.6 44.6 100% 39 29.78 0.0
05 23:55 N 9 9.00 Overcast SCT008 SCT027 OVC035 46.4 46.4 100% 42 29.78 0.0 0.02
05 23:35 N 6 10.00 Mostly Cloudy FEW018 SCT037 BKN047 46.4 46.4 100% 44 29.77 0.0
05 23:15 NE 6 9.00 Overcast SCT017 BKN044 OVC070 46.4 46.4 100% 44 29.77 0.0
05 22:55 NE 7 5.00 Fog/Mist SCT011 BKN044 OVC070 46.4 46.4 100% 43 29.78 0.0 0.04
05 22:35 N 8 4.00 Fog/Mist FEW007 SCT012 BKN018 46.4 46.4 100% 43 29.8 0.0
05 22:15 N 5 6.00 Fog/Mist FEW019 SCT028 OVC040 46.4 46.4 100% 45 29.8 0.0
05 21:55 N 6 4.00 Fog/Mist FEW009 BKN027 OVC037 46.4 46.4 100% 44 29.8 0.0 0.09
05 21:35 NW 6 4.00 Fog/Mist FEW009 BKN024 OVC030 46.4 46.4 100% 44 29.8 0.0
05 21:15 N 6 4.00 Fog/Mist OVC024 46.4 46.4 100% 44 29.79 0.0
05 20:35 N 10 G 17 4.00 Fog/Mist SCT006 BKN015 OVC023 48.2 48.2 100% 44 29.76 0.0
05 20:15 N 7 4.00 Fog/Mist BKN006 BKN013 OVC023 48.2 48.2 100% 46 29.76 0.0
05 19:55 N 9 G 15 4.00 Fog/Mist BKN006 BKN010 OVC014 48.2 48.2 100% 45 29.76 0.0 0.05
05 19:35 NW 13 2.00 Fog/Mist BKN005 BKN009 OVC014 48.2 48.2 100% 43 29.76 0.0
05 19:15 N 10 5.00 Fog/Mist OVC005 50 50 100% 46 29.76 0.0
05 18:55 N 8 2.50 Fog/Mist OVC005 51.8 51.8 100% 29.76 0.0 0.01
05 18:35 NW 10 3.00 Fog/Mist OVC005 51.8 51.8 100% 29.75 0.0
05 18:15 NE 7 4.00 Fog/Mist OVC006 51.8 51.8 100% 29.74 0.0
05 17:55 NE 8 4.00 Fog/Mist BKN006 BKN011 OVC018 51.8 51.8 100% 29.74 0.0 0.05
05 17:35 NW 6 G 13 3.00 Fog/Mist BKN005 OVC011 53.6 53.6 100% 29.75 0.0
05 17:15 NW 9 6.00 Fog/Mist BKN004 OVC010 53.6 53.6 100% 29.75 0.0
05 16:55 NW 12 2.50 Fog/Mist BKN004 OVC008 53.6 53.6 100% 29.76 0.0 0.12
05 16:35 NW 7 3.00 Fog/Mist FEW004 SCT010 BKN023 57.2 57.2 100% 29.75 0.0
05 16:15 W 3 5.00 Fog/Mist FEW015 BKN020 OVC024 57.2 57.2 100% 29.74 0.0
05 15:55 Calm 8.00 Overcast FEW013 BKN019 OVC028 57.2 57.2 100% 29.74 0.0 0.04
05 15:35 NW 5 3.00 Fog/Mist FEW006 SCT011 BKN026 57.2 57.2 100% 29.76 0.0
05 15:15 NW 6 5.00 Fog/Mist FEW010 SCT029 BKN050 57.2 57.2 100% 29.76 0.0
05 14:55 W 7 5.00 Fog/Mist FEW043 BKN055 OVC070 57.2 57.2 100% 29.76 0.0 0.01
05 14:35 NW 7 8.00 Mostly Cloudy FEW005 SCT046 BKN055 57.2 57.2 100% 29.76 0.0
05 14:15 NW 6 10.00 Mostly Cloudy FEW035 SCT043 BKN055 57.2 57.2 100% 29.76 0.0
05 13:55 NW 6 8.00 Mostly Cloudy FEW017 SCT031 BKN041 57.2 57.2 100% 29.76 0.0
05 13:35 NW 9 7.00 Mostly Cloudy FEW013 SCT017 BKN033 57.2 57.2 100% 29.77 0.0
05 13:15 NW 15 G 23 7.00 Mostly Cloudy FEW016 SCT027 BKN032 59 57.2 94% 29.77 0.0
05 12:55 W 16 10.00 Overcast FEW029 BKN044 OVC050 62.6 55.4 77% 29.76 0.0
05 12:35 W 17 10.00 Overcast BKN028 BKN032 OVC037 62.6 55.4 77% 29.77 0.0
05 12:15 W 21 10.00 Overcast and Breezy BKN029 BKN034 OVC042 64.4 55.4 73% 29.77 0.0
05 11:35 W 17 G 26 10.00 Overcast BKN029 OVC035 66.2 55.4 68% 29.76 0.0
05 11:15 SW 17 G 26 10.00 Mostly Cloudy BKN028 BKN033 BKN039 64.4 55.4 73% 29.76 0.0
05 10:55 W 18 G 31 10.00 Partly Cloudy FEW027 SCT035 64.4 55.4 73% 29.75 0.0
05 10:35 SW 21 G 31 10.00 Fair and Breezy CLR 64.4 55.4 73% 29.73 0.0
05 10:15 SW 21 10.00 Fair and Breezy CLR 64.4 55.4 73% 29.72 0.0
05 09:55 SW 18 G 26 10.00 Fair CLR 62.6 53.6 73% 29.7 0.0
05 09:35 SW 16 10.00 Fair CLR 62.6 55.4 77% 29.71 0.0
05 09:15 SW 15 G 23 10.00 Fair CLR 60.8 55.4 83% 29.71 0.0
05 08:55 SW 15 G 23 10.00 Fair CLR 60.8 55.4 83% 29.71 0.0
05 08:35 SW 15 G 22 10.00 Fair CLR 59 53.6 82% 29.72 0.0
05 08:15 SW 16 10.00 Fair CLR 57.2 53.6 88% 29.72 0.0
05 07:55 SW 17 10.00 Fair CLR 57.2 53.6 88% 29.71 0.0
05 07:35 SW 12 G 17 10.00 Fair CLR 55.4 53.6 94% 29.69 0.0
05 07:15 SW 15 G 22 10.00 Fair CLR 57.2 53.6 88% 29.67 0.0
05 06:55 SW 16 10.00 A Few Clouds FEW085 57.2 51.8 82% 29.64 0.0
05 06:35 SW 17 G 25 10.00 Mostly Cloudy FEW075 BKN085 57.2 53.6 88% 29.63 0.0
05 06:15 SW 16 10.00 Overcast FEW050 SCT075 OVC090 55.4 53.6 94% 29.64 0.0
05 05:55 S 12 G 18 10.00 Mostly Cloudy FEW040 SCT050 BKN065 55.4 55.4 100% 29.65 0.0 0.07
05 05:35 SW 15 G 21 7.00 Overcast SCT036 BKN041 OVC070 55.4 55.4 100% 29.67 0.0
05 05:15 SW 17 G 25 5.00 Fog/Mist BKN035 BKN048 OVC070 55.4 55.4 100% 29.7 0.0
05 04:55 SW 14 8.00 Mostly Cloudy FEW034 SCT055 BKN065 57.2 55.4 94% 29.69 0.0 0.01
05 04:35 SW 15 G 24 9.00 Mostly Cloudy FEW045 SCT065 BKN090 59 53.6 82% 29.69 0.0
05 04:15 W 15 G 22 10.00 Overcast SCT046 BKN065 OVC110 60.8 51.8 72% 29.68 0.0
05 03:55 W 17 G 24 10.00 Overcast BKN047 OVC050 60.8 51.8 72% 29.67 0.0
05 03:35 W 24 G 30 10.00 Overcast and Breezy BKN049 BKN090 OVC110 62.6 51.8 68% 29.67 0.0
05 03:15 W 18 G 29 10.00 Overcast SCT041 BKN060 OVC110 64.4 51.8 64% 29.66 0.0
05 02:55 SW 21 G 41 10.00 Overcast and Breezy SCT055 BKN065 OVC075 66.2 50 56% 29.65 0.0
05 02:35 SW 16 10.00 Overcast BKN065 OVC080 64.4 51.8 64% 29.64 0.0
05 02:10 SW 18 G 29 10.00 Mostly Cloudy BKN080 BKN120 66.2 50 56% 29.63 0.0
05 01:55 SW 17 G 26 10.00 Mostly Cloudy SCT090 BKN120 68 50 53% 29.62 0.0
05 01:40 SW 17 G 24 10.00 Mostly Cloudy BKN085 BKN100 BKN120 68 50 53% 29.63 0.0
05 01:10 SW 14 10.00 Mostly Cloudy SCT085 BKN110 66.2 50 56% 29.63 0.0
05 00:55 SW 16 G 23 10.00 Mostly Cloudy FEW060 FEW075 BKN085 66.2 50 56% 29.63 0.0
05 00:35 SW 14 G 26 10.00 Mostly Cloudy FEW035 SCT070 BKN080 68 50 53% 29.64 0.0
05 00:15 SW 12 G 21 10.00 Mostly Cloudy FEW055 BKN100 66.2 50 56% 29.64 0.0
04 23:55 SW 15 G 23 10.00 Overcast FEW060 OVC100 68 50 53% 29.65 0.0
04 23:35 S 17 10.00 Mostly Cloudy BKN110 68 50 53% 29.65 0.0
04 23:15 SW 16 G 25 10.00 Overcast OVC110 68 50 53% 29.65 0.0
04 22:55 SW 16 G 25 10.00 Overcast OVC110 68 50 53% 29.65 0.0
04 22:35 S 10 10.00 Overcast OVC110 66.2 50 56% 29.65 0.0
04 22:15 S 10 10.00 Overcast OVC110 66.2 50 56% 29.64 0.0
04 21:55 S 10 10.00 Mostly Cloudy FEW050 BKN110 66.2 50 56% 29.65 0.0
04 21:35 S 10 10.00 Partly Cloudy FEW050 SCT100 66.2 50 56% 29.65 0.0
04 21:15 S 9 10.00 Mostly Cloudy FEW044 FEW075 BKN100 66.2 50 56% 29.64 0.0
04 20:55 S 9 G 16 10.00 Mostly Cloudy FEW055 BKN090 BKN110 66.2 50 56% 29.64 0.0
04 20:35 S 9 G 15 10.00 Mostly Cloudy BKN110 68 50 53% 29.64 0.0
04 20:15 S 12 G 21 10.00 A Few Clouds FEW095 68 50 53% 29.64 0.0
04 19:55 SW 14 G 23 10.00 Mostly Cloudy BKN095 69.8 48.2 46% 29.64 0.0
04 19:35 SW 15 G 24 10.00 Partly Cloudy SCT090 69.8 48.2 46% 29.64 0.0
04 19:15 SW 18 G 26 10.00 A Few Clouds FEW110 73.4 48.2 41% 29.64 0.0
04 18:55 SW 21 G 39 10.00 Mostly Cloudy and Breezy BKN110 73.4 46.4 38% 29.64 0.0
04 18:35 SW 18 G 25 10.00 Partly Cloudy SCT100 73.4 48.2 41% 29.63 0.0
04 18:15 SW 21 G 30 10.00 A Few Clouds and Breezy FEW100 73.4 48.2 41% 29.63 0.0
04 17:55 SW 23 G 33 10.00 Partly Cloudy and Breezy SCT100 73.4 48.2 41% 29.64 0.0
04 17:35 SW 20 G 31 10.00 Partly Cloudy SCT100 73.4 50 44% 29.64 0.0
04 17:15 SW 23 G 40 10.00 Mostly Cloudy and Breezy BKN100 73.4 50 44% 29.64 0.0
04 16:55 SW 28 G 40 10.00 Fair and Windy CLR 73.4 50 44% 29.65 0.0
04 16:35 SW 30 G 45 10.00 Fair and Windy CLR 75.2 50 41% 78 29.65 0.0
04 16:15 SW 30 G 39 10.00 A Few Clouds and Windy FEW060 FEW110 75.2 50 41% 78 29.66 0.0
04 15:55 SW 20 G 32 10.00 Fair CLR 73.4 51.8 47% 29.66 0.0
04 15:35 SW 28 G 35 10.00 A Few Clouds and Windy FEW055 75.2 51.8 44% 78 29.67 0.0
04 15:15 SW 22 G 30 10.00 A Few Clouds and Breezy FEW100 75.2 50 41% 78 29.67 0.0
Date Time (edt) Wind (mph) Vis. (mi.) Weather Sky Cond. Air Dwpt Max. Min. Relative Humidity Wind Chill (°F) Heat Index (°F) altimeter (in) sea level (mb) 1 hr 3 hr 6 hr
6 hour
Temperature (ºF) Pressure Precipitation (in)